createdAt,value
2022-09-22T00:00:51.534Z,1012.10
2022-09-22T00:01:51.519Z,1012.12
2022-09-22T00:02:51.443Z,1012.14
2022-09-22T00:03:51.425Z,1012.10
2022-09-22T00:04:52.487Z,1012.12
2022-09-22T00:05:51.406Z,1012.11
2022-09-22T00:06:51.403Z,1012.10
2022-09-22T00:07:51.389Z,1012.10
2022-09-22T00:08:51.425Z,1012.10
2022-09-22T00:09:51.406Z,1012.13
2022-09-22T00:10:51.339Z,1012.10
2022-09-22T00:11:51.473Z,1012.11
2022-09-22T00:12:51.319Z,1012.12
2022-09-22T00:13:51.345Z,1012.10
2022-09-22T00:14:51.325Z,1012.10
2022-09-22T00:15:51.324Z,1012.10
2022-09-22T00:16:51.335Z,1012.16
2022-09-22T00:17:51.261Z,1012.15
2022-09-22T00:18:51.268Z,1012.21
2022-09-22T00:19:51.262Z,1012.16
2022-09-22T00:20:51.236Z,1012.23
2022-09-22T00:21:51.275Z,1012.10
2022-09-22T00:22:51.998Z,1012.14
2022-09-22T00:23:51.221Z,1012.18
2022-09-22T00:24:51.188Z,1012.13
2022-09-22T00:25:51.184Z,1012.09
2022-09-22T00:26:51.205Z,1012.15
2022-09-22T00:27:51.147Z,1012.11
2022-09-22T00:28:51.136Z,1012.11
2022-09-22T00:29:51.124Z,1012.11
2022-09-22T00:30:51.115Z,1012.11
2022-09-22T00:31:51.157Z,1012.10
2022-09-22T00:32:51.110Z,1012.08
2022-09-22T00:33:51.082Z,1012.04
2022-09-22T00:34:51.071Z,1012.09
2022-09-22T00:35:51.066Z,1012.06
2022-09-22T00:36:51.043Z,1012.12
2022-09-22T00:37:51.081Z,1012.09
2022-09-22T00:38:51.027Z,1012.08
2022-09-22T00:39:51.043Z,1012.07
2022-09-22T00:40:51.006Z,1012.02
2022-09-22T00:41:51.022Z,1012.10
2022-09-22T00:42:50.979Z,1012.03
2022-09-22T00:43:51.003Z,1012.09
2022-09-22T00:44:50.954Z,1012.03
2022-09-22T00:45:50.944Z,1012.03
2022-09-22T00:46:51.085Z,1012.00
2022-09-22T00:47:50.931Z,1011.98
2022-09-22T00:48:50.949Z,1012.00
2022-09-22T00:49:50.930Z,1012.01
2022-09-22T00:50:50.890Z,1012.08
2022-09-22T00:51:50.941Z,1012.05
2022-09-22T00:52:50.865Z,1012.01
2022-09-22T00:53:50.859Z,1012.03
2022-09-22T00:54:50.847Z,1012.04
2022-09-22T00:55:50.866Z,1011.98
2022-09-22T00:56:50.830Z,1012.04
2022-09-22T00:57:50.859Z,1012.06
2022-09-22T00:58:50.812Z,1012.02
2022-09-22T00:59:50.823Z,1012.02
2022-09-22T01:00:50.795Z,1011.96
2022-09-22T01:01:50.834Z,1012.01
2022-09-22T01:02:50.802Z,1012.04
2022-09-22T01:03:50.750Z,1012.00
2022-09-22T01:04:50.780Z,1011.97
2022-09-22T01:05:50.725Z,1012.00
2022-09-22T01:06:50.726Z,1011.98
2022-09-22T01:07:50.727Z,1011.96
2022-09-22T01:08:50.690Z,1012.01
2022-09-22T01:09:50.687Z,1011.96
2022-09-22T01:10:50.693Z,1011.98
2022-09-22T01:11:50.686Z,1011.94
2022-09-22T01:12:50.664Z,1011.97
2022-09-22T01:13:50.652Z,1011.93
2022-09-22T01:14:50.624Z,1011.89
2022-09-22T01:15:50.787Z,1011.91
2022-09-22T01:16:50.636Z,1011.90
2022-09-22T01:17:50.592Z,1011.93
2022-09-22T01:18:50.605Z,1011.96
2022-09-22T01:19:50.575Z,1011.93
2022-09-22T01:20:50.569Z,1011.88
2022-09-22T01:21:50.567Z,1011.90
2022-09-22T01:22:50.536Z,1011.90
2022-09-22T01:23:50.531Z,1011.85
2022-09-22T01:24:50.524Z,1011.82
2022-09-22T01:25:50.572Z,1011.85
2022-09-22T01:26:50.485Z,1011.87
2022-09-22T01:27:50.497Z,1011.87
2022-09-22T01:28:50.469Z,1011.87
2022-09-22T01:29:50.512Z,1011.85
2022-09-22T01:30:50.489Z,1011.82
2022-09-22T01:31:50.433Z,1011.84
2022-09-22T01:32:50.420Z,1011.78
2022-09-22T01:33:50.431Z,1011.79
2022-09-22T01:34:50.398Z,1011.82
2022-09-22T01:35:50.455Z,1011.84
2022-09-22T01:36:50.376Z,1011.80
2022-09-22T01:37:50.372Z,1011.79
2022-09-22T01:38:50.363Z,1011.76
2022-09-22T01:39:50.368Z,1011.79
2022-09-22T01:40:50.352Z,1011.77
2022-09-22T01:41:50.339Z,1011.75
2022-09-22T01:42:50.309Z,1011.75
2022-09-22T01:43:50.909Z,1011.78
2022-09-22T01:44:50.291Z,1011.77
2022-09-22T01:45:50.298Z,1011.75
2022-09-22T01:46:50.388Z,1011.82
2022-09-22T01:47:50.273Z,1011.76
2022-09-22T01:48:50.250Z,1011.73
2022-09-22T01:49:50.244Z,1011.72
2022-09-22T01:50:50.239Z,1011.75
2022-09-22T01:51:50.236Z,1011.70
2022-09-22T01:52:50.244Z,1011.70
2022-09-22T01:53:50.211Z,1011.69
2022-09-22T01:54:50.179Z,1011.63
2022-09-22T01:55:50.179Z,1011.72
2022-09-22T01:56:50.187Z,1011.72
2022-09-22T01:57:50.181Z,1011.71
2022-09-22T01:58:50.194Z,1011.71
2022-09-22T01:59:50.124Z,1011.73
2022-09-22T02:00:50.112Z,1011.74
2022-09-22T02:01:50.293Z,1011.60
2022-09-22T02:02:50.240Z,1011.68
2022-09-22T02:03:50.099Z,1011.64
2022-09-22T02:04:50.073Z,1011.66
2022-09-22T02:05:50.062Z,1011.71
2022-09-22T02:06:50.049Z,1011.70
2022-09-22T02:07:50.938Z,1011.73
2022-09-22T02:08:50.020Z,1011.68
2022-09-22T02:09:50.018Z,1011.71
2022-09-22T02:10:50.016Z,1011.67
2022-09-22T02:11:49.990Z,1011.75
2022-09-22T02:12:49.997Z,1011.69
2022-09-22T02:13:49.998Z,1011.70
2022-09-22T02:14:49.951Z,1011.69
2022-09-22T02:15:50.013Z,1011.70
2022-09-22T02:16:50.488Z,1011.76
2022-09-22T02:17:49.946Z,1011.69
2022-09-22T02:18:49.913Z,1011.72
2022-09-22T02:19:49.913Z,1011.71
2022-09-22T02:20:49.884Z,1011.73
2022-09-22T02:21:49.896Z,1011.69
2022-09-22T02:22:50.410Z,1011.74
2022-09-22T02:23:49.879Z,1011.72
2022-09-22T02:24:49.841Z,1011.71
2022-09-22T02:25:49.842Z,1011.66
2022-09-22T02:26:49.828Z,1011.74
2022-09-22T02:27:49.817Z,1011.73
2022-09-22T02:28:49.875Z,1011.70
2022-09-22T02:29:49.819Z,1011.65
2022-09-22T02:31:10.548Z,1011.68
2022-09-22T02:31:49.809Z,1011.74
2022-09-22T02:32:49.761Z,1011.73
2022-09-22T02:33:49.772Z,1011.74
2022-09-22T02:34:50.935Z,1011.70
2022-09-22T02:35:49.777Z,1011.70
2022-09-22T02:36:49.713Z,1011.70
2022-09-22T02:37:49.719Z,1011.69
2022-09-22T02:38:49.692Z,1011.74
2022-09-22T02:39:49.675Z,1011.68
2022-09-22T02:40:51.419Z,1011.66
2022-09-22T02:41:49.669Z,1011.65
2022-09-22T02:42:49.674Z,1011.65
2022-09-22T02:43:54.389Z,1011.64
2022-09-22T02:44:49.628Z,1011.65
2022-09-22T02:45:49.960Z,1011.65
2022-09-22T02:46:52.544Z,1011.67
2022-09-22T02:47:49.602Z,1011.64
2022-09-22T02:48:49.578Z,1011.63
2022-09-22T02:49:49.613Z,1011.64
2022-09-22T02:50:49.584Z,1011.66
2022-09-22T02:51:49.548Z,1011.63
2022-09-22T02:52:50.381Z,1011.59
2022-09-22T02:53:49.527Z,1011.61
2022-09-22T02:54:49.510Z,1011.59
2022-09-22T02:55:49.505Z,1011.60
2022-09-22T02:56:49.521Z,1011.56
2022-09-22T02:57:49.523Z,1011.57
2022-09-22T02:58:49.465Z,1011.61
2022-09-22T02:59:49.475Z,1011.60
2022-09-22T03:00:49.444Z,1011.62
2022-09-22T03:01:49.489Z,1011.55
2022-09-22T03:02:49.426Z,1011.59
2022-09-22T03:03:49.414Z,1011.52
2022-09-22T03:04:49.941Z,1011.56
2022-09-22T03:05:49.430Z,1011.56
2022-09-22T03:06:49.407Z,1011.51
2022-09-22T03:07:50.374Z,1011.56
2022-09-22T03:08:49.357Z,1011.53
2022-09-22T03:09:49.868Z,1011.50
2022-09-22T03:10:49.362Z,1011.51
2022-09-22T03:11:49.325Z,1011.51
2022-09-22T03:13:09.471Z,1011.50
2022-09-22T03:13:49.367Z,1011.47
2022-09-22T03:14:49.319Z,1011.49
2022-09-22T03:15:49.304Z,1011.49
2022-09-22T03:16:49.272Z,1011.54
2022-09-22T03:17:49.279Z,1011.49
2022-09-22T03:18:49.257Z,1011.53
2022-09-22T03:19:49.261Z,1011.47
2022-09-22T03:20:49.226Z,1011.49
2022-09-22T03:21:49.251Z,1011.52
2022-09-22T03:22:49.210Z,1011.45
2022-09-22T03:23:49.199Z,1011.49
2022-09-22T03:24:49.189Z,1011.44
2022-09-22T03:25:49.234Z,1011.42
2022-09-22T03:26:49.162Z,1011.46
2022-09-22T03:27:49.403Z,1011.44
2022-09-22T03:28:49.152Z,1011.44
2022-09-22T03:29:49.382Z,1011.42
2022-09-22T03:30:49.190Z,1011.43
2022-09-22T03:31:49.142Z,1011.49
2022-09-22T03:32:49.094Z,1011.43
2022-09-22T03:33:52.576Z,1011.48
2022-09-22T03:34:49.092Z,1011.51
2022-09-22T03:35:49.107Z,1011.51
2022-09-22T03:36:49.078Z,1011.52
2022-09-22T03:37:49.098Z,1011.53
2022-09-22T03:38:49.031Z,1011.49
2022-09-22T03:39:49.038Z,1011.51
2022-09-22T03:40:49.072Z,1011.55
2022-09-22T03:41:49.008Z,1011.50
2022-09-22T03:42:49.013Z,1011.54
2022-09-22T03:43:48.997Z,1011.47
2022-09-22T03:44:49.018Z,1011.50
2022-09-22T03:45:49.090Z,1011.56
2022-09-22T03:46:48.945Z,1011.51
2022-09-22T03:47:48.942Z,1011.50
2022-09-22T03:48:48.944Z,1011.56
2022-09-22T03:49:48.908Z,1011.57
2022-09-22T03:50:48.901Z,1011.50
2022-09-22T03:51:48.914Z,1011.47
2022-09-22T03:52:48.905Z,1011.44
2022-09-22T03:53:48.889Z,1011.47
2022-09-22T03:54:48.871Z,1011.48
2022-09-22T03:55:48.850Z,1011.50
2022-09-22T03:56:50.380Z,1011.47
2022-09-22T03:57:48.829Z,1011.47
2022-09-22T03:58:48.817Z,1011.47
2022-09-22T03:59:48.809Z,1011.46
2022-09-22T04:00:48.824Z,1011.45
2022-09-22T04:01:48.919Z,1011.43
2022-09-22T04:02:48.837Z,1011.46
2022-09-22T04:03:48.759Z,1011.40
2022-09-22T04:04:49.370Z,1011.41
2022-09-22T04:05:48.749Z,1011.46
2022-09-22T04:06:48.755Z,1011.44
2022-09-22T04:07:48.751Z,1011.45
2022-09-22T04:08:48.735Z,1011.38
2022-09-22T04:09:48.718Z,1011.46
2022-09-22T04:10:48.716Z,1011.41
2022-09-22T04:11:49.355Z,1011.41
2022-09-22T04:12:48.690Z,1011.46
2022-09-22T04:13:48.645Z,1011.39
2022-09-22T04:14:48.637Z,1011.41
2022-09-22T04:15:48.668Z,1011.40
2022-09-22T04:16:48.711Z,1011.37
2022-09-22T04:17:48.623Z,1011.46
2022-09-22T04:18:48.615Z,1011.43
2022-09-22T04:19:48.602Z,1011.43
2022-09-22T04:20:48.584Z,1011.36
2022-09-22T04:21:53.235Z,1011.38
2022-09-22T04:22:48.554Z,1011.47
2022-09-22T04:23:48.556Z,1011.43
2022-09-22T04:24:48.526Z,1011.38
2022-09-22T04:25:48.533Z,1011.44
2022-09-22T04:27:08.604Z,1011.45
2022-09-22T04:27:48.544Z,1011.49
2022-09-22T04:28:48.494Z,1011.40
2022-09-22T04:29:48.497Z,1011.40
2022-09-22T04:30:48.492Z,1011.43
2022-09-22T04:31:48.453Z,1011.37
2022-09-22T04:32:48.480Z,1011.46
2022-09-22T04:33:48.430Z,1011.37
2022-09-22T04:34:48.418Z,1011.37
2022-09-22T04:35:48.406Z,1011.36
2022-09-22T04:36:48.399Z,1011.32
2022-09-22T04:37:48.424Z,1011.41
2022-09-22T04:38:48.381Z,1011.40
2022-09-22T04:39:48.363Z,1011.35
2022-09-22T04:40:49.408Z,1011.39
2022-09-22T04:41:48.359Z,1011.36
2022-09-22T04:42:48.343Z,1011.37
2022-09-22T04:43:48.327Z,1011.41
2022-09-22T04:44:48.327Z,1011.42
2022-09-22T04:45:49.064Z,1011.36
2022-09-22T04:46:48.294Z,1011.34
2022-09-22T04:47:49.283Z,1011.37
2022-09-22T04:48:49.269Z,1011.36
2022-09-22T04:49:48.252Z,1011.34
2022-09-22T04:50:48.485Z,1011.33
2022-09-22T04:51:48.249Z,1011.37
2022-09-22T04:52:48.233Z,1011.32
2022-09-22T04:53:48.208Z,1011.45
2022-09-22T04:54:48.216Z,1011.41
2022-09-22T04:55:48.192Z,1011.41
2022-09-22T04:56:48.185Z,1011.46
2022-09-22T04:57:48.199Z,1011.43
2022-09-22T04:58:48.180Z,1011.41
2022-09-22T04:59:48.197Z,1011.48
2022-09-22T05:00:48.161Z,1011.40
2022-09-22T05:01:48.213Z,1011.39
2022-09-22T05:02:48.216Z,1011.36
2022-09-22T05:03:48.113Z,1011.46
2022-09-22T05:04:48.117Z,1011.43
2022-09-22T05:05:48.126Z,1011.44
2022-09-22T05:06:48.845Z,1011.47
2022-09-22T05:07:48.071Z,1011.42
2022-09-22T05:08:48.805Z,1011.49
2022-09-22T05:09:48.808Z,1011.45
2022-09-22T05:10:48.047Z,1011.44
2022-09-22T05:11:48.025Z,1011.44
2022-09-22T05:12:48.010Z,1011.43
2022-09-22T05:13:48.035Z,1011.44
2022-09-22T05:14:47.998Z,1011.45
2022-09-22T05:15:47.979Z,1011.47
2022-09-22T05:16:48.104Z,1011.52
2022-09-22T05:17:47.949Z,1011.48
2022-09-22T05:18:48.864Z,1011.51
2022-09-22T05:19:47.942Z,1011.48
2022-09-22T05:20:47.924Z,1011.50
2022-09-22T05:21:47.927Z,1011.54
2022-09-22T05:22:47.928Z,1011.54
2022-09-22T05:23:47.904Z,1011.52
2022-09-22T05:24:47.897Z,1011.52
2022-09-22T05:25:47.890Z,1011.58
2022-09-22T05:26:47.852Z,1011.59
2022-09-22T05:27:47.870Z,1011.57
2022-09-22T05:28:47.855Z,1011.54
2022-09-22T05:29:47.870Z,1011.58
2022-09-22T05:30:47.817Z,1011.57
2022-09-22T05:31:47.878Z,1011.57
2022-09-22T05:32:47.827Z,1011.62
2022-09-22T05:33:47.789Z,1011.57
2022-09-22T05:34:47.774Z,1011.62
2022-09-22T05:35:47.775Z,1011.60
2022-09-22T05:36:47.745Z,1011.60
2022-09-22T05:37:47.730Z,1011.62
2022-09-22T05:38:47.759Z,1011.59
2022-09-22T05:39:47.705Z,1011.65
2022-09-22T05:40:47.849Z,1011.66
2022-09-22T05:41:47.688Z,1011.59
2022-09-22T05:42:47.682Z,1011.61
2022-09-22T05:43:47.677Z,1011.68
2022-09-22T05:44:47.685Z,1011.67
2022-09-22T05:45:47.765Z,1011.65
2022-09-22T05:46:47.633Z,1011.69
2022-09-22T05:47:47.622Z,1011.65
2022-09-22T05:48:47.636Z,1011.64
2022-09-22T05:49:47.598Z,1011.68
2022-09-22T05:50:47.610Z,1011.73
2022-09-22T05:51:47.575Z,1011.69
2022-09-22T05:52:47.604Z,1011.68
2022-09-22T05:53:47.573Z,1011.71
2022-09-22T05:54:47.584Z,1011.73
2022-09-22T05:55:47.541Z,1011.70
2022-09-22T05:56:47.551Z,1011.73
2022-09-22T05:57:47.557Z,1011.75
2022-09-22T05:58:47.529Z,1011.82
2022-09-22T05:59:47.494Z,1011.78
2022-09-22T06:00:47.577Z,1011.80
2022-09-22T06:01:47.548Z,1011.72
2022-09-22T06:02:47.527Z,1011.76
2022-09-22T06:03:47.499Z,1011.74
2022-09-22T06:04:49.540Z,1011.81
2022-09-22T06:05:47.444Z,1011.78
2022-09-22T06:06:47.408Z,1011.74
2022-09-22T06:07:47.401Z,1011.76
2022-09-22T06:08:49.069Z,1011.72
2022-09-22T06:09:47.480Z,1011.79
2022-09-22T06:10:47.375Z,1011.75
2022-09-22T06:11:47.354Z,1011.72
2022-09-22T06:12:47.346Z,1011.79
2022-09-22T06:13:47.342Z,1011.77
2022-09-22T06:14:48.421Z,1011.80
2022-09-22T06:15:47.816Z,1011.72
2022-09-22T06:16:47.404Z,1011.77
2022-09-22T06:17:47.303Z,1011.84
2022-09-22T06:18:47.295Z,1011.75
2022-09-22T06:19:47.267Z,1011.76
2022-09-22T06:20:47.295Z,1011.70
2022-09-22T06:21:47.273Z,1011.69
2022-09-22T06:22:47.253Z,1011.74
2022-09-22T06:23:47.222Z,1011.70
2022-09-22T06:24:47.224Z,1011.72
2022-09-22T06:25:47.218Z,1011.68
2022-09-22T06:26:47.230Z,1011.73
2022-09-22T06:27:47.183Z,1011.66
2022-09-22T06:28:47.190Z,1011.76
2022-09-22T06:29:47.154Z,1011.79
2022-09-22T06:30:47.161Z,1011.80
2022-09-22T06:31:47.228Z,1011.75
2022-09-22T06:32:47.176Z,1011.80
2022-09-22T06:33:47.135Z,1011.73
2022-09-22T06:34:47.131Z,1011.69
2022-09-22T06:35:47.115Z,1011.73
2022-09-22T06:36:47.100Z,1011.75
2022-09-22T06:37:47.227Z,1011.77
2022-09-22T06:38:47.116Z,1011.77
2022-09-22T06:39:47.073Z,1011.73
2022-09-22T06:40:47.197Z,1011.77
2022-09-22T06:41:47.029Z,1011.74
2022-09-22T06:42:47.029Z,1011.75
2022-09-22T06:43:47.029Z,1011.78
2022-09-22T06:44:47.005Z,1011.71
2022-09-22T06:45:47.098Z,1011.75
2022-09-22T06:46:46.973Z,1011.76
2022-09-22T06:47:46.968Z,1011.77
2022-09-22T06:48:46.962Z,1011.78
2022-09-22T06:49:46.955Z,1011.81
2022-09-22T06:50:46.945Z,1011.83
2022-09-22T06:51:46.952Z,1011.76
2022-09-22T06:52:47.021Z,1011.80
2022-09-22T06:53:51.229Z,1011.77
2022-09-22T06:54:46.898Z,1011.77
2022-09-22T06:55:46.889Z,1011.80
2022-09-22T06:56:46.889Z,1011.76
2022-09-22T06:57:46.869Z,1011.76
2022-09-22T06:59:08.295Z,1011.78
2022-09-22T06:59:46.856Z,1011.81
2022-09-22T07:00:46.970Z,1011.80
2022-09-22T07:01:46.952Z,1011.76
2022-09-22T07:02:46.796Z,1011.78
2022-09-22T07:03:46.829Z,1011.80
2022-09-22T07:04:46.772Z,1011.80
2022-09-22T07:05:46.808Z,1011.75
2022-09-22T07:06:46.771Z,1011.83
2022-09-22T07:07:46.750Z,1011.82
2022-09-22T07:08:46.785Z,1011.79
2022-09-22T07:09:46.744Z,1011.80
2022-09-22T07:10:46.715Z,1011.77
2022-09-22T07:11:46.704Z,1011.81
2022-09-22T07:12:46.694Z,1011.85
2022-09-22T07:13:46.724Z,1011.86
2022-09-22T07:14:46.782Z,1011.85
2022-09-22T07:15:46.659Z,1011.84
2022-09-22T07:16:46.751Z,1011.81
2022-09-22T07:17:46.644Z,1011.83
2022-09-22T07:18:46.624Z,1011.86
2022-09-22T07:19:46.631Z,1011.84
2022-09-22T07:20:46.604Z,1011.89
2022-09-22T07:21:46.644Z,1011.87
2022-09-22T07:22:46.597Z,1011.86
2022-09-22T07:23:46.565Z,1011.88
2022-09-22T07:24:46.590Z,1011.81
2022-09-22T07:25:46.540Z,1011.81
2022-09-22T07:26:46.560Z,1011.81
2022-09-22T07:27:46.553Z,1011.80
2022-09-22T07:28:46.512Z,1011.82
2022-09-22T07:29:46.533Z,1011.83
2022-09-22T07:30:46.505Z,1011.82
2022-09-22T07:31:46.579Z,1011.81
2022-09-22T07:32:46.460Z,1011.82
2022-09-22T07:33:46.801Z,1011.81
2022-09-22T07:34:46.671Z,1011.77
2022-09-22T07:35:46.432Z,1011.73
2022-09-22T07:36:46.491Z,1011.75
2022-09-22T07:37:46.441Z,1011.80
2022-09-22T07:38:46.435Z,1011.81
2022-09-22T07:39:46.439Z,1011.83
2022-09-22T07:40:46.457Z,1011.76
2022-09-22T07:41:46.400Z,1011.75
2022-09-22T07:42:46.353Z,1011.76
2022-09-22T07:43:46.355Z,1011.82
2022-09-22T07:44:46.331Z,1011.80
2022-09-22T07:45:46.333Z,1011.74
2022-09-22T07:46:46.423Z,1011.78
2022-09-22T07:47:46.293Z,1011.74
2022-09-22T07:48:46.293Z,1011.77
2022-09-22T07:49:46.274Z,1011.77
2022-09-22T07:50:46.291Z,1011.80
2022-09-22T07:51:46.379Z,1011.77
2022-09-22T07:52:46.269Z,1011.79
2022-09-22T07:53:46.253Z,1011.82
2022-09-22T07:54:46.283Z,1011.77
2022-09-22T07:55:46.209Z,1011.79
2022-09-22T07:56:46.210Z,1011.79
2022-09-22T07:57:46.202Z,1011.77
2022-09-22T07:58:46.217Z,1011.81
2022-09-22T07:59:46.169Z,1011.85
2022-09-22T08:00:46.325Z,1011.80
2022-09-22T08:01:46.178Z,1011.80
2022-09-22T08:02:46.143Z,1011.77
2022-09-22T08:03:46.140Z,1011.80
2022-09-22T08:04:46.107Z,1011.81
2022-09-22T08:05:46.096Z,1011.81
2022-09-22T08:06:46.117Z,1011.84
2022-09-22T08:07:46.087Z,1011.90
2022-09-22T08:08:46.069Z,1011.83
2022-09-22T08:09:46.067Z,1011.82
2022-09-22T08:10:46.047Z,1011.82
2022-09-22T08:11:46.045Z,1011.81
2022-09-22T08:12:46.112Z,1011.80
2022-09-22T08:13:46.040Z,1011.86
2022-09-22T08:14:46.004Z,1011.86
2022-09-22T08:15:46.058Z,1011.79
2022-09-22T08:16:46.093Z,1011.77
2022-09-22T08:17:45.977Z,1011.78
2022-09-22T08:18:45.972Z,1011.76
2022-09-22T08:19:45.990Z,1011.79
2022-09-22T08:20:45.955Z,1011.81
2022-09-22T08:21:49.345Z,1011.82
2022-09-22T08:22:45.927Z,1011.79
2022-09-22T08:23:45.903Z,1011.78
2022-09-22T08:24:45.882Z,1011.68
2022-09-22T08:25:45.931Z,1011.71
2022-09-22T08:26:48.306Z,1011.73
2022-09-22T08:27:45.851Z,1011.70
2022-09-22T08:28:45.859Z,1011.79
2022-09-22T08:29:45.856Z,1011.77
2022-09-22T08:30:45.822Z,1011.75
2022-09-22T08:31:45.876Z,1011.79
2022-09-22T08:32:45.869Z,1011.74
2022-09-22T08:33:45.835Z,1011.74
2022-09-22T08:34:45.776Z,1011.72
2022-09-22T08:35:45.830Z,1011.74
2022-09-22T08:36:45.773Z,1011.70
2022-09-22T08:37:45.796Z,1011.68
2022-09-22T08:38:45.728Z,1011.68
2022-09-22T08:39:45.717Z,1011.69
2022-09-22T08:40:45.817Z,1011.72
2022-09-22T08:41:45.746Z,1011.72
2022-09-22T08:42:45.698Z,1011.74
2022-09-22T08:43:45.691Z,1011.79
2022-09-22T08:44:45.664Z,1011.73
2022-09-22T08:45:45.652Z,1011.71
2022-09-22T08:46:45.707Z,1011.79
2022-09-22T08:47:45.664Z,1011.72
2022-09-22T08:48:45.644Z,1011.70
2022-09-22T08:49:45.684Z,1011.74
2022-09-22T08:50:45.597Z,1011.65
2022-09-22T08:51:45.593Z,1011.67
2022-09-22T08:52:45.605Z,1011.69
2022-09-22T08:53:45.610Z,1011.74
2022-09-22T08:54:45.576Z,1011.75
2022-09-22T08:55:45.576Z,1011.73
2022-09-22T08:56:45.531Z,1011.72
2022-09-22T08:57:45.548Z,1011.71
2022-09-22T08:58:45.546Z,1011.75
2022-09-22T08:59:45.516Z,1011.74
2022-09-22T09:00:45.512Z,1011.73
2022-09-22T09:01:45.551Z,1011.77
2022-09-22T09:02:45.517Z,1011.74
2022-09-22T09:03:45.462Z,1011.74
2022-09-22T09:04:45.558Z,1011.75
2022-09-22T09:05:45.448Z,1011.82
2022-09-22T09:06:45.420Z,1011.75
2022-09-22T09:07:45.424Z,1011.75
2022-09-22T09:08:45.426Z,1011.73
2022-09-22T09:09:45.401Z,1011.77
2022-09-22T09:10:45.384Z,1011.77
2022-09-22T09:11:45.390Z,1011.77
2022-09-22T09:12:45.396Z,1011.73
2022-09-22T09:13:45.370Z,1011.76
2022-09-22T09:14:45.334Z,1011.71
2022-09-22T09:15:45.571Z,1011.67
2022-09-22T09:16:45.373Z,1011.71
2022-09-22T09:17:45.327Z,1011.70
2022-09-22T09:18:45.327Z,1011.72
2022-09-22T09:19:45.282Z,1011.66
2022-09-22T09:20:45.341Z,1011.72
2022-09-22T09:21:45.253Z,1011.69
2022-09-22T09:22:48.468Z,1011.68
2022-09-22T09:25:45.218Z,1011.68
2022-09-22T09:26:45.223Z,1011.66
2022-09-22T09:27:45.230Z,1011.64
2022-09-22T09:28:45.247Z,1011.63
2022-09-22T09:29:45.257Z,1011.68
2022-09-22T09:30:45.207Z,1011.64
2022-09-22T09:31:45.174Z,1011.66
2022-09-22T09:32:45.159Z,1011.70
2022-09-22T09:33:45.217Z,1011.62
2022-09-22T09:34:45.156Z,1011.64
2022-09-22T09:35:45.100Z,1011.64
2022-09-22T09:36:45.105Z,1011.62
2022-09-22T09:37:45.090Z,1011.60
2022-09-22T09:38:45.150Z,1011.62
2022-09-22T09:39:45.058Z,1011.68
2022-09-22T09:40:45.168Z,1011.63
2022-09-22T09:41:45.036Z,1011.59
2022-09-22T09:42:45.051Z,1011.60
2022-09-22T09:43:45.045Z,1011.57
2022-09-22T09:44:45.009Z,1011.56
2022-09-22T09:45:45.022Z,1011.52
2022-09-22T09:46:45.046Z,1011.56
2022-09-22T09:47:44.965Z,1011.55
2022-09-22T09:48:44.982Z,1011.56
2022-09-22T09:49:44.953Z,1011.52
2022-09-22T09:50:44.953Z,1011.52
2022-09-22T09:51:44.940Z,1011.56
2022-09-22T09:52:45.026Z,1011.50
2022-09-22T09:53:44.909Z,1011.55
2022-09-22T09:54:44.943Z,1011.52
2022-09-22T09:55:45.676Z,1011.58
2022-09-22T09:56:44.866Z,1011.53
2022-09-22T09:57:44.884Z,1011.48
2022-09-22T09:58:45.065Z,1011.51
2022-09-22T09:59:44.838Z,1011.52
2022-09-22T10:00:44.822Z,1011.52
2022-09-22T10:01:44.925Z,1011.52
2022-09-22T10:02:44.836Z,1011.49
2022-09-22T10:03:44.867Z,1011.50
2022-09-22T10:04:44.803Z,1011.61
2022-09-22T10:05:44.786Z,1011.55
2022-09-22T10:06:44.793Z,1011.50
2022-09-22T10:07:44.754Z,1011.52
2022-09-22T10:08:44.780Z,1011.52
2022-09-22T10:09:44.763Z,1011.52
2022-09-22T10:10:44.725Z,1011.61
2022-09-22T10:11:44.724Z,1011.53
2022-09-22T10:12:44.704Z,1011.52
2022-09-22T10:13:44.701Z,1011.55
2022-09-22T10:14:44.669Z,1011.50
2022-09-22T10:15:44.759Z,1011.59
2022-09-22T10:16:44.675Z,1011.54
2022-09-22T10:17:44.695Z,1011.54
2022-09-22T10:18:44.633Z,1011.47
2022-09-22T10:19:44.638Z,1011.46
2022-09-22T10:20:44.711Z,1011.46
2022-09-22T10:21:44.636Z,1011.46
2022-09-22T10:22:44.594Z,1011.49
2022-09-22T10:23:44.567Z,1011.48
2022-09-22T10:24:44.594Z,1011.48
2022-09-22T10:25:44.546Z,1011.50
2022-09-22T10:26:44.569Z,1011.49
2022-09-22T10:27:44.521Z,1011.43
2022-09-22T10:28:44.520Z,1011.47
2022-09-22T10:29:44.513Z,1011.41
2022-09-22T10:30:44.523Z,1011.44
2022-09-22T10:31:44.512Z,1011.42
2022-09-22T10:32:44.478Z,1011.37
2022-09-22T10:33:44.476Z,1011.36
2022-09-22T10:35:44.505Z,1011.40
2022-09-22T10:36:45.600Z,1011.40
2022-09-22T10:37:44.463Z,1011.39
2022-09-22T10:38:44.448Z,1011.37
2022-09-22T10:39:44.506Z,1011.34
2022-09-22T10:40:44.639Z,1011.38
2022-09-22T10:41:44.539Z,1011.38
2022-09-22T10:42:44.425Z,1011.37
2022-09-22T10:43:44.423Z,1011.42
2022-09-22T10:44:48.623Z,1011.43
2022-09-22T10:45:44.397Z,1011.34
2022-09-22T10:46:44.438Z,1011.32
2022-09-22T10:47:44.449Z,1011.32
2022-09-22T10:48:44.484Z,1011.26
2022-09-22T10:49:44.330Z,1011.28
2022-09-22T10:50:44.277Z,1011.37
2022-09-22T10:51:44.254Z,1011.39
2022-09-22T10:52:44.248Z,1011.31
2022-09-22T10:53:44.245Z,1011.32
2022-09-22T10:54:44.369Z,1011.35
2022-09-22T10:55:44.394Z,1011.38
2022-09-22T10:56:44.242Z,1011.34
2022-09-22T10:57:44.339Z,1011.35
2022-09-22T10:58:46.249Z,1011.39
2022-09-22T10:59:44.173Z,1011.31
2022-09-22T11:00:44.196Z,1011.36
2022-09-22T11:01:44.206Z,1011.38
2022-09-22T11:02:44.149Z,1011.35
2022-09-22T11:03:44.154Z,1011.33
2022-09-22T11:04:44.179Z,1011.34
2022-09-22T11:05:44.174Z,1011.35
2022-09-22T11:06:44.130Z,1011.31
2022-09-22T11:07:44.122Z,1011.33
2022-09-22T11:08:44.083Z,1011.34
2022-09-22T11:09:44.083Z,1011.33
2022-09-22T11:10:44.115Z,1011.35
2022-09-22T11:11:44.040Z,1011.37
2022-09-22T11:12:44.039Z,1011.37
2022-09-22T11:13:44.033Z,1011.38
2022-09-22T11:14:44.017Z,1011.37
2022-09-22T11:15:44.093Z,1011.30
2022-09-22T11:16:44.011Z,1011.30
2022-09-22T11:17:45.475Z,1011.31
2022-09-22T11:18:43.979Z,1011.28
2022-09-22T11:19:43.971Z,1011.33
2022-09-22T11:20:44.094Z,1011.29
2022-09-22T11:21:44.014Z,1011.31
2022-09-22T11:22:43.955Z,1011.28
2022-09-22T11:23:43.920Z,1011.35
2022-09-22T11:24:43.908Z,1011.25
2022-09-22T11:25:43.939Z,1011.32
2022-09-22T11:26:43.875Z,1011.27
2022-09-22T11:27:43.893Z,1011.30
2022-09-22T11:28:44.619Z,1011.22
2022-09-22T11:29:43.844Z,1011.23
2022-09-22T11:30:43.926Z,1011.22
2022-09-22T11:31:43.846Z,1011.31
2022-09-22T11:32:43.822Z,1011.16
2022-09-22T11:33:43.797Z,1011.16
2022-09-22T11:34:43.799Z,1011.18
2022-09-22T11:35:43.794Z,1011.16
2022-09-22T11:36:46.812Z,1011.14
2022-09-22T11:37:43.772Z,1011.14
2022-09-22T11:38:43.770Z,1011.13
2022-09-22T11:39:43.783Z,1011.16
2022-09-22T11:40:43.818Z,1011.19
2022-09-22T11:41:43.724Z,1011.21
2022-09-22T11:42:43.730Z,1011.17
2022-09-22T11:43:43.690Z,1011.22
2022-09-22T11:44:43.685Z,1011.13
2022-09-22T11:45:43.800Z,1011.16
2022-09-22T11:46:43.705Z,1011.17
2022-09-22T11:47:43.659Z,1011.15
2022-09-22T11:48:43.877Z,1011.17
2022-09-22T11:49:43.830Z,1011.03
2022-09-22T11:50:43.816Z,1011.10
2022-09-22T11:51:43.817Z,1011.07
2022-09-22T11:52:43.884Z,1011.09
2022-09-22T11:53:43.761Z,1011.07
2022-09-22T11:54:43.593Z,1011.07
2022-09-22T11:55:43.556Z,1011.01
2022-09-22T11:56:43.874Z,1011.01
2022-09-22T11:57:43.529Z,1011.03
2022-09-22T11:58:43.735Z,1010.97
2022-09-22T11:59:43.542Z,1011.03
2022-09-22T12:00:43.510Z,1010.98
2022-09-22T12:01:43.495Z,1010.92
2022-09-22T12:02:43.625Z,1010.89
2022-09-22T12:03:43.562Z,1010.90
2022-09-22T12:04:43.463Z,1010.88
2022-09-22T12:05:43.524Z,1010.89
2022-09-22T12:06:43.440Z,1010.90
2022-09-22T12:07:43.457Z,1010.91
2022-09-22T12:08:43.500Z,1010.89